createdAt,value
2019-03-10T00:03:33.868Z,1.20
2019-03-10T00:08:40.984Z,0.77
2019-03-10T00:19:30.103Z,0.63
2019-03-10T00:24:39.542Z,0.90
2019-03-10T00:29:47.036Z,0.80
2019-03-10T00:34:54.237Z,1.10
2019-03-10T00:40:36.973Z,1.40
2019-03-10T00:46:33.016Z,2.37
2019-03-10T00:52:20.297Z,2.10
2019-03-10T00:57:27.718Z,3.33
2019-03-10T01:02:39.393Z,2.67
2019-03-10T01:07:46.490Z,1.97
2019-03-10T01:12:54.006Z,1.53
2019-03-10T01:18:04.534Z,1.60
2019-03-10T01:23:12.793Z,1.40
2019-03-10T01:28:20.083Z,1.90
2019-03-10T01:34:07.833Z,2.30
2019-03-10T01:39:15.967Z,2.27
2019-03-10T01:44:23.097Z,1.77
2019-03-10T01:49:31.617Z,2.03
2019-03-10T01:54:40.306Z,1.97
2019-03-10T01:59:47.631Z,2.83
2019-03-10T02:04:56.030Z,5.43
2019-03-10T02:10:03.817Z,2.73
2019-03-10T02:15:14.500Z,3.17
2019-03-10T02:20:22.003Z,2.45
2019-03-10T02:25:31.061Z,2.63
2019-03-10T02:30:44.969Z,1.93
2019-03-10T02:35:53.153Z,2.40
2019-03-10T02:41:04.526Z,2.10
2019-03-10T02:46:11.919Z,2.00
2019-03-10T02:51:19.661Z,2.37
2019-03-10T02:56:27.675Z,2.33
2019-03-10T03:01:35.129Z,2.60
2019-03-10T03:06:42.354Z,2.30
2019-03-10T03:11:50.470Z,2.30
2019-03-10T03:16:57.577Z,2.87
2019-03-10T03:22:05.651Z,4.73
2019-03-10T03:27:13.100Z,3.90
2019-03-10T03:32:20.230Z,3.57
2019-03-10T03:37:27.523Z,2.30
2019-03-10T03:42:34.569Z,2.73
2019-03-10T03:47:41.644Z,2.33
2019-03-10T03:52:48.835Z,2.03
2019-03-10T03:57:55.935Z,2.30
2019-03-10T04:03:03.314Z,2.50
2019-03-10T04:08:13.818Z,2.67
2019-03-10T04:13:20.928Z,2.00
2019-03-10T04:18:28.031Z,1.77
2019-03-10T04:23:35.216Z,1.87
2019-03-10T04:28:42.309Z,2.80
2019-03-10T04:33:56.565Z,2.67
2019-03-10T04:39:07.552Z,2.80
2019-03-10T04:44:16.303Z,3.03
2019-03-10T04:49:23.542Z,3.77
2019-03-10T04:54:49.523Z,5.10
2019-03-10T04:59:57.411Z,3.90
2019-03-10T05:05:04.823Z,4.07
2019-03-10T05:10:21.180Z,3.33
2019-03-10T05:15:28.821Z,4.30
2019-03-10T05:20:36.336Z,6.27
2019-03-10T05:25:44.648Z,4.00
2019-03-10T05:30:52.870Z,4.75
2019-03-10T05:36:00.171Z,3.80
2019-03-10T05:41:07.496Z,4.07
2019-03-10T05:46:14.993Z,4.10
2019-03-10T05:51:42.696Z,3.93
2019-03-10T05:56:50.083Z,5.03
2019-03-10T06:01:57.367Z,5.47
2019-03-10T06:07:05.521Z,5.60
2019-03-10T06:12:12.831Z,4.03
2019-03-10T06:17:21.544Z,3.10
2019-03-10T06:22:30.283Z,3.63
2019-03-10T06:27:38.680Z,3.30
2019-03-10T06:32:46.368Z,3.67
2019-03-10T06:37:56.075Z,11.93
2019-03-10T06:43:03.337Z,10.17
2019-03-10T06:48:14.914Z,13.23
2019-03-10T06:53:22.823Z,18.50
2019-03-10T06:58:30.507Z,10.73
2019-03-10T07:03:38.280Z,10.90
2019-03-10T07:08:50.147Z,18.10
2019-03-10T07:13:57.375Z,14.13
2019-03-10T07:19:05.147Z,8.30
2019-03-10T07:24:12.351Z,39.30
2019-03-10T07:29:28.663Z,11.30
2019-03-10T07:34:55.857Z,6.60
2019-03-10T07:40:12.114Z,4.93
2019-03-10T07:45:41.385Z,3.03
2019-03-10T07:51:16.399Z,2.63
2019-03-10T07:56:41.230Z,3.70
2019-03-10T08:02:17.722Z,2.97
2019-03-10T08:07:48.818Z,3.72
2019-03-10T08:13:18.584Z,5.97
2019-03-10T08:18:45.092Z,4.90
2019-03-10T08:24:14.866Z,4.70
2019-03-10T08:29:40.865Z,3.67
2019-03-10T08:35:16.552Z,3.73
2019-03-10T08:40:41.853Z,3.00
2019-03-10T08:46:17.242Z,9.43
2019-03-10T08:51:33.403Z,4.30
2019-03-10T08:56:56.179Z,8.67
2019-03-10T09:02:20.881Z,6.13
2019-03-10T09:07:48.109Z,7.53
2019-03-10T09:13:16.934Z,5.17
2019-03-10T09:18:49.511Z,4.83
2019-03-10T09:24:15.571Z,6.10
2019-03-10T09:29:49.404Z,6.37
2019-03-10T09:35:05.702Z,3.67
2019-03-10T09:40:41.494Z,3.92
2019-03-10T09:46:13.031Z,3.47
2019-03-10T09:51:54.763Z,5.10
2019-03-10T09:57:14.558Z,2.60
2019-03-10T10:02:46.883Z,3.10
2019-03-10T10:08:33.581Z,3.50
2019-03-10T10:14:02.169Z,15.57
2019-03-10T10:19:19.681Z,4.20
2019-03-10T10:30:54.002Z,2.70
2019-03-10T10:36:29.143Z,2.87
2019-03-10T10:42:10.705Z,4.57
2019-03-10T10:47:36.886Z,2.17
2019-03-10T10:53:12.440Z,2.47
2019-03-10T10:58:37.630Z,4.95
2019-03-10T11:04:05.238Z,2.30
2019-03-10T11:09:37.668Z,2.12
2019-03-10T11:15:11.025Z,4.33
2019-03-10T11:20:31.994Z,2.70
2019-03-10T11:26:19.022Z,2.50
2019-03-10T11:31:51.015Z,2.63
2019-03-10T11:43:18.152Z,2.33
2019-03-10T11:48:43.905Z,2.27
2019-03-10T11:54:10.883Z,3.53
2019-03-10T11:59:32.682Z,9.57
2019-03-10T12:04:46.255Z,2.57
2019-03-10T12:09:55.592Z,2.40
2019-03-10T12:15:02.837Z,2.33
2019-03-10T12:20:12.475Z,2.53
2019-03-10T12:25:20.104Z,2.60
2019-03-10T12:30:27.234Z,2.23
2019-03-10T12:35:34.950Z,2.07
2019-03-10T12:40:42.348Z,2.03
2019-03-10T12:45:50.786Z,1.80
2019-03-10T12:50:58.794Z,2.23
2019-03-10T12:56:06.012Z,2.03
2019-03-10T13:01:14.036Z,2.07
2019-03-10T13:06:21.150Z,2.67
2019-03-10T13:11:31.964Z,5.97
2019-03-10T13:16:41.091Z,2.00
2019-03-10T13:21:48.343Z,1.97
2019-03-10T13:26:58.597Z,1.67
2019-03-10T13:32:06.707Z,1.33
2019-03-10T13:37:21.126Z,1.67
2019-03-10T13:42:32.746Z,2.10
2019-03-10T13:47:40.052Z,2.57
2019-03-10T13:52:49.173Z,2.50
2019-03-10T13:57:57.476Z,2.23
2019-03-10T14:03:05.100Z,2.40
2019-03-10T14:08:15.224Z,2.85
2019-03-10T14:13:23.489Z,7.20
2019-03-10T14:18:30.662Z,9.83
2019-03-10T14:23:41.154Z,9.60
2019-03-10T14:28:49.584Z,2.33
2019-03-10T14:33:57.223Z,2.50
2019-03-10T14:39:07.775Z,5.37
2019-03-10T14:44:17.129Z,5.20
2019-03-10T14:49:27.539Z,2.60
2019-03-10T14:54:41.737Z,13.57
2019-03-10T14:59:49.050Z,4.30
2019-03-10T15:04:56.306Z,5.80
2019-03-10T15:10:04.632Z,13.07
2019-03-10T15:15:21.612Z,9.83
2019-03-10T15:20:22.136Z,5.17
2019-03-10T15:25:32.146Z,4.70
2019-03-10T15:30:39.571Z,8.63
2019-03-10T15:35:47.593Z,3.17
2019-03-10T15:40:57.732Z,3.03
2019-03-10T15:46:06.255Z,3.07
2019-03-10T15:51:14.534Z,4.47
2019-03-10T15:56:24.848Z,2.63
2019-03-10T16:01:31.906Z,5.67
2019-03-10T16:06:40.438Z,8.87
2019-03-10T16:11:48.038Z,2.70
2019-03-10T16:16:55.189Z,4.87
2019-03-10T16:22:07.318Z,3.50
2019-03-10T16:27:16.517Z,6.05
2019-03-10T16:32:23.791Z,17.67
2019-03-10T16:37:34.036Z,9.20
2019-03-10T16:42:43.346Z,13.33
2019-03-10T16:47:50.625Z,19.37
2019-03-10T16:53:00.324Z,27.47
2019-03-10T16:58:11.488Z,15.03
2019-03-10T17:03:20.146Z,9.07
2019-03-10T17:08:27.374Z,5.47
2019-03-10T17:13:36.178Z,2.93
2019-03-10T17:18:44.842Z,3.17
2019-03-10T17:23:52.023Z,3.40
2019-03-10T17:29:00.134Z,11.60
2019-03-10T17:34:07.580Z,16.93
2019-03-10T17:39:17.965Z,22.22
2019-03-10T17:44:25.164Z,23.10
2019-03-10T17:49:55.366Z,18.50
2019-03-10T17:55:06.510Z,9.20
2019-03-10T18:00:17.160Z,4.20
2019-03-10T18:05:26.113Z,2.70
2019-03-10T18:10:33.307Z,2.60
2019-03-10T18:15:43.968Z,2.10
2019-03-10T18:20:51.598Z,3.70
2019-03-10T18:25:58.876Z,2.63
2019-03-10T18:31:07.442Z,5.77
2019-03-10T18:36:16.547Z,3.72
2019-03-10T18:41:23.687Z,3.33
2019-03-10T18:46:30.919Z,2.70
2019-03-10T18:51:38.068Z,2.07
2019-03-10T18:56:45.400Z,11.63
2019-03-10T19:01:52.630Z,14.37
2019-03-10T19:07:04.008Z,17.00
2019-03-10T19:12:12.680Z,56.43
2019-03-10T19:17:20.513Z,44.58
2019-03-10T19:22:27.669Z,52.27
2019-03-10T19:27:38.382Z,20.27
2019-03-10T19:32:47.093Z,7.40
2019-03-10T19:37:55.725Z,3.33
2019-03-10T19:43:02.971Z,3.80
2019-03-10T19:48:11.796Z,4.72
2019-03-10T19:53:20.008Z,2.90
2019-03-10T19:58:27.103Z,2.70
2019-03-10T20:03:38.825Z,2.80
2019-03-10T20:08:49.559Z,2.90
2019-03-10T20:13:56.615Z,2.60
2019-03-10T20:19:04.075Z,3.27
2019-03-10T20:24:12.808Z,3.50
2019-03-10T20:29:20.975Z,4.85
2019-03-10T20:34:28.295Z,6.30
2019-03-10T20:39:36.400Z,7.00
2019-03-10T20:44:43.641Z,6.40
2019-03-10T20:49:50.844Z,7.37
2019-03-10T20:54:58.054Z,5.97
2019-03-10T21:00:07.481Z,6.43
2019-03-10T21:05:17.765Z,5.23
2019-03-10T21:10:27.052Z,5.40
2019-03-10T21:15:34.408Z,4.77
2019-03-10T21:20:41.510Z,5.30
2019-03-10T21:25:48.749Z,12.43
2019-03-10T21:30:55.958Z,7.23
2019-03-10T21:36:04.827Z,4.67
2019-03-10T21:41:14.318Z,5.40
2019-03-10T21:46:22.370Z,6.30
2019-03-10T21:51:33.472Z,5.10
2019-03-10T21:56:41.189Z,5.03
2019-03-10T22:01:48.235Z,3.73
2019-03-10T22:06:55.493Z,4.70
2019-03-10T22:12:02.766Z,6.80
2019-03-10T22:17:10.123Z,14.53
2019-03-10T22:22:17.399Z,8.33
2019-03-10T22:27:26.241Z,15.33
2019-03-10T22:32:33.315Z,18.43
2019-03-10T22:37:40.402Z,7.77
2019-03-10T22:42:47.556Z,7.60
2019-03-10T22:47:54.662Z,6.30
2019-03-10T22:53:01.925Z,4.77
2019-03-10T22:58:09.008Z,4.40
2019-03-10T23:03:17.646Z,3.90
2019-03-10T23:08:26.715Z,4.27
2019-03-10T23:13:33.794Z,3.07
2019-03-10T23:18:40.856Z,4.03
2019-03-10T23:23:47.958Z,2.83
2019-03-10T23:28:55.720Z,3.30
2019-03-10T23:34:02.992Z,4.17
2019-03-10T23:39:11.691Z,3.03
2019-03-10T23:44:20.311Z,3.27
2019-03-10T23:49:27.453Z,2.97
2019-03-10T23:54:36.399Z,2.53
2019-03-10T23:59:44.730Z,2.67
